ěÝzenÝ letovÚho provozu ╚eskÚ republiky
Letiste: LKNA Aktualizace: 12.07.2024 23:59:41  UTC
 METAR LKNA 13.07. 00:00 ...
METAR LKNA 130000Z 27004KT CAVOK 17/17 Q1010 RMK BLACK=
 TAF LKNA 12.07. 23:00 ...
TAF LKNA 122300Z 1300/1400 29008KT CAVOK      PROB30 1301/1306 3000 MIFG SCT005      PROB40 TEMPO 1304/1309 SHRA BKN015      TEMPO 1314/1400 SHRA BKN025TCU=